Time;durP1;ratioP1;P1;durP2;ratioP2;P2;SDS_P1;SDS_P2;PMS_P1;PMS_P2;Temp;Humidity;BMP_temperature;BMP_pressure;BME280_temperature;BME280_humidity;BME280_pressure;Samples;Min_cycle;Max_cycle;Signal;HPM_P1;HPM_P2
2022/12/20 00:01:50;;;;;;;1.15;1.15;;;;;;;-1.43;100.00;101566.53;6126984;23;20071;-92
2022/12/20 00:04:16;;;;;;;3.72;3.50;;;;;;;-1.43;100.00;101568.44;6127054;23;20017;-92
2022/12/20 00:06:41;;;;;;;4.88;3.10;;;;;;;-1.47;100.00;101562.03;6127455;23;20009;-91
2022/12/20 00:09:08;;;;;;;5.78;2.88;;;;;;;-1.41;100.00;101572.44;6151753;23;20016;-92
2022/12/20 00:11:35;;;;;;;4.00;2.72;;;;;;;-1.37;100.00;101578.03;6126397;23;20005;-94
2022/12/20 00:14:00;;;;;;;4.18;1.65;;;;;;;-1.51;100.00;101555.63;6126863;23;20452;-93
2022/12/20 00:16:27;;;;;;;3.33;3.03;;;;;;;-1.33;100.00;101572.78;6126740;23;20041;-92
2022/12/20 00:18:55;;;;;;;1.95;1.85;;;;;;;-1.43;100.00;101554.81;6152490;23;20013;-93
2022/12/20 00:21:21;;;;;;;0.55;0.55;;;;;;;-1.35;100.00;101559.47;6129225;23;20479;-93
2022/12/20 00:23:47;;;;;;;4.53;4.03;;;;;;;-1.54;100.00;101535.31;6155161;23;20010;-93
2022/12/20 00:26:16;;;;;;;2.70;2.30;;;;;;;-1.31;100.00;101571.31;6127147;23;20485;-93
2022/12/20 00:28:44;;;;;;;5.05;4.65;;;;;;;-1.37;100.00;101564.41;6129561;23;20370;-92
2022/12/20 00:31:13;;;;;;;4.40;3.25;;;;;;;-1.38;100.00;101565.56;6129536;23;20018;-94
2022/12/20 00:33:39;;;;;;;1.70;1.60;;;;;;;-1.45;100.00;101557.84;6130671;23;20367;-92
2022/12/20 00:36:07;;;;;;;5.35;3.88;;;;;;;-1.48;100.00;101550.34;6128531;23;20017;-87
2022/12/20 00:38:34;;;;;;;2.80;1.95;;;;;;;-1.47;100.00;101556.59;6129335;23;20080;-93
2022/12/20 00:41:02;;;;;;;2.42;2.33;;;;;;;-1.37;100.00;101569.88;6104685;23;20021;-94
2022/12/20 00:43:28;;;;;;;1.55;1.45;;;;;;;-1.55;100.00;101539.13;6154685;23;20542;-93
2022/12/20 00:45:53;;;;;;;6.13;5.05;;;;;;;-1.41;100.00;101561.53;6104519;23;20014;-92
2022/12/20 00:48:19;;;;;;;5.28;4.88;;;;;;;-1.51;100.00;101545.53;6129503;23;20016;-93
2022/12/20 00:50:45;;;;;;;6.72;3.38;;;;;;;-1.47;100.00;101564.75;6130434;23;20006;-92
2022/12/20 00:53:10;;;;;;;5.80;3.30;;;;;;;-1.55;100.00;101550.03;6105067;23;20028;-94
2022/12/20 00:55:43;;;;;;;1.85;1.75;;;;;;;-1.48;100.00;101557.69;6126216;23;20436;-92
2022/12/20 00:58:09;;;;;;;4.50;3.83;;;;;;;-1.56;100.00;101525.84;6128869;23;20025;-94
2022/12/20 01:00:35;;;;;;;2.20;2.10;;;;;;;-1.50;100.00;101540.91;6154896;23;20033;-92
2022/12/20 01:03:01;;;;;;;2.85;2.65;;;;;;;-1.47;100.00;101548.41;6104274;23;20016;-92
2022/12/20 01:05:27;;;;;;;3.55;3.28;;;;;;;-1.52;100.00;101526.81;6153016;23;20021;-93
2022/12/20 01:07:52;;;;;;;1.00;0.95;;;;;;;-1.51;100.00;101531.13;6130463;23;20021;-94
2022/12/20 01:10:18;;;;;;;7.88;3.83;;;;;;;-1.45;100.00;101529.84;6128222;23;20372;-94
2022/12/20 01:12:44;;;;;;;2.88;2.28;;;;;;;-1.62;100.00;101499.91;6128065;23;20172;-92
2022/12/20 01:15:10;;;;;;;1.55;1.48;;;;;;;-1.49;100.00;101515.25;6128050;23;20013;-92
2022/12/20 01:17:36;;;;;;;11.30;3.97;;;;;;;-1.51;100.00;101495.75;6151264;23;20013;-92
2022/12/20 01:20:03;;;;;;;2.45;2.22;;;;;;;-1.46;100.00;101514.66;6127789;23;20041;-91
2022/12/20 01:22:28;;;;;;;2.90;2.65;;;;;;;-1.55;100.00;101490.16;6127877;23;20010;-92
2022/12/20 01:24:54;;;;;;;5.93;3.22;;;;;;;-1.49;100.00;101498.94;6124059;23;20022;-93
2022/12/20 01:27:20;;;;;;;0.98;0.98;;;;;;;-1.47;100.00;101505.69;6126288;23;20013;-91
2022/12/20 01:29:45;;;;;;;1.48;1.45;;;;;;;-1.47;100.00;101491.28;6125971;23;20475;-93
2022/12/20 01:32:11;;;;;;;0.80;0.80;;;;;;;-1.63;100.00;101471.09;6101608;23;20092;-92
2022/12/20 01:34:36;;;;;;;1.33;1.25;;;;;;;-1.54;100.00;101475.44;6127974;23;20436;-91
2022/12/20 01:37:02;;;;;;;3.33;3.03;;;;;;;-1.47;100.00;101483.09;6128005;23;20024;-91
2022/12/20 01:39:27;;;;;;;10.30;4.78;;;;;;;-1.62;100.00;101456.38;6128490;23;20017;-92
2022/12/20 01:41:53;;;;;;;0.60;0.60;;;;;;;-1.61;100.00;101463.41;6126954;23;20018;-91
2022/12/20 01:44:18;;;;;;;2.30;2.17;;;;;;;-1.50;100.00;101479.13;6127779;23;20016;-92
2022/12/20 01:46:46;;;;;;;3.65;3.15;;;;;;;-1.59;100.00;101455.75;6151175;23;20076;-91
2022/12/20 01:49:35;;;;;;;2.90;2.70;;;;;;;-1.52;100.00;101467.75;6125096;23;20018;-92
2022/12/20 01:52:04;;;;;;;1.63;1.52;;;;;;;-1.49;100.00;101460.84;6155826;23;20009;-89
2022/12/20 01:54:35;;;;;;;5.00;4.30;;;;;;;-1.53;100.00;101463.41;6152934;23;20160;-85
2022/12/20 01:57:03;;;;;;;4.30;1.95;;;;;;;-1.51;100.00;101458.47;6127220;23;20029;-85
2022/12/20 01:59:31;;;;;;;1.85;1.67;;;;;;;-1.51;100.00;101455.75;6126969;23;20002;-87
2022/12/20 02:01:57;;;;;;;5.65;4.07;;;;;;;-1.75;100.00;101406.47;6105995;23;20127;-92
2022/12/20 02:04:24;;;;;;;2.05;1.58;;;;;;;-1.49;100.00;101447.22;6143103;23;20027;-85
2022/12/20 02:06:49;;;;;;;3.40;3.03;;;;;;;-1.53;100.00;101454.44;6178458;23;20520;-84
2022/12/20 02:09:15;;;;;;;6.20;3.15;;;;;;;-1.75;100.00;101416.53;6183032;23;20029;-85
2022/12/20 02:11:51;;;;;;;2.83;2.65;;;;;;;-1.54;100.00;101445.50;6184067;23;20013;-84
2022/12/20 02:14:31;;;;;;;10.77;2.92;;;;;;;-1.42;100.00;101444.84;6154164;23;20028;-84
2022/12/20 02:17:24;;;;;;;4.72;2.88;;;;;;;-1.44;100.00;101452.53;6183326;23;20016;-84
2022/12/20 02:20:11;;;;;;;13.00;2.17;;;;;;;-1.47;100.00;101455.88;6166840;23;20408;-84
2022/12/20 02:22:58;;;;;;;4.38;1.58;;;;;;;-1.49;100.00;101455.41;6182476;23;20025;-84
2022/12/20 02:25:45;;;;;;;2.38;2.28;;;;;;;-1.47;100.00;101459.41;6183140;23;20417;-84
2022/12/20 02:28:35;;;;;;;2.85;2.03;;;;;;;-1.51;100.00;101457.66;6181899;23;20016;-84
2022/12/20 02:31:03;;;;;;;5.03;1.80;;;;;;;-1.39;100.00;101460.53;6155160;23;20036;-84
2022/12/20 02:33:29;;;;;;;1.38;1.27;;;;;;;-1.41;100.00;101446.41;6154574;23;20354;-84
2022/12/20 02:35:55;;;;;;;3.17;2.97;;;;;;;-1.35;100.00;101456.03;6181971;23;20181;-84
2022/12/20 02:38:35;;;;;;;3.58;3.33;;;;;;;-1.45;100.00;101440.03;6180658;23;20021;-84
2022/12/20 02:41:18;;;;;;;2.53;2.10;;;;;;;-1.38;100.00;101455.88;6182386;23;20503;-84
2022/12/20 02:46:34;;;;;;;2.67;2.47;;;;;;;-1.50;100.00;101432.06;6158409;23;20092;-84
2022/12/20 02:49:03;;;;;;;5.35;3.20;;;;;;;-1.43;100.00;101448.69;6154767;23;20021;-84
2022/12/20 02:51:30;;;;;;;3.55;3.33;;;;;;;-1.44;100.00;101455.25;6182502;23;20016;-83
2022/12/20 02:53:57;;;;;;;1.42;1.33;;;;;;;-1.46;100.00;101443.88;6156382;23;20016;-83
2022/12/20 02:56:46;;;;;;;1.75;1.52;;;;;;;-1.45;100.00;101438.09;6181893;23;20117;-84
2022/12/20 02:59:20;;;;;;;5.63;3.67;;;;;;;-1.42;100.00;101433.97;6153256;23;20319;-84
2022/12/20 03:01:51;;;;;;;1.83;1.73;;;;;;;-1.52;100.00;101417.94;6158071;23;20021;-83
2022/12/20 03:04:19;;;;;;;3.13;2.10;;;;;;;-1.53;100.00;101432.66;6151074;23;20028;-83
2022/12/20 03:07:11;;;;;;;5.13;1.42;;;;;;;-1.44;100.00;101441.63;6131851;23;20009;-83
2022/12/20 03:09:39;;;;;;;1.80;1.70;;;;;;;-1.43;100.00;101444.03;6154517;23;20032;-84
2022/12/20 03:12:05;;;;;;;3.53;1.95;;;;;;;-1.45;100.00;101440.03;6129830;23;20330;-84
2022/12/20 03:14:34;;;;;;;2.38;2.17;;;;;;;-1.47;100.00;101439.56;6129891;23;20068;-84
2022/12/20 03:17:02;;;;;;;0.95;0.95;;;;;;;-1.41;100.00;101446.41;6107484;23;20008;-84
2022/12/20 03:19:28;;;;;;;3.30;3.10;;;;;;;-1.44;100.00;101441.63;6180981;23;20017;-83
2022/12/20 03:21:56;;;;;;;6.28;3.72;;;;;;;-1.43;100.00;101433.16;6181062;23;20012;-84
2022/12/20 03:24:22;;;;;;;3.47;1.95;;;;;;;-1.54;100.00;101420.22;6155057;23;20019;-83
2022/12/20 03:26:48;;;;;;;1.38;1.30;;;;;;;-1.41;100.00;101432.81;6154331;23;20009;-83
2022/12/20 03:29:16;;;;;;;1.48;1.15;;;;;;;-1.47;100.00;101426.75;6152434;23;20064;-84
2022/12/20 03:31:41;;;;;;;3.88;3.40;;;;;;;-1.42;100.00;101428.50;6128633;23;20021;-84
2022/12/20 03:34:07;;;;;;;2.55;2.33;;;;;;;-1.41;100.00;101419.22;6179566;23;20045;-83
2022/12/20 03:36:33;;;;;;;1.52;1.42;;;;;;;-1.37;100.00;101409.28;6155089;23;20020;-84
2022/12/20 03:39:02;;;;;;;2.97;2.80;;;;;;;-1.43;100.00;101403.22;6127502;23;20008;-83
2022/12/20 03:41:32;;;;;;;5.57;2.33;;;;;;;-1.52;100.00;101391.53;6152641;23;20016;-83
2022/12/20 03:43:58;;;;;;;2.15;1.65;;;;;;;-1.46;100.00;101408.50;6153085;23;20021;-83
2022/12/20 03:46:24;;;;;;;2.97;2.30;;;;;;;-1.44;100.00;101404.34;6151540;23;20493;-83
2022/12/20 03:48:50;;;;;;;2.42;2.28;;;;;;;-1.52;100.00;101388.03;6153990;23;20092;-84
2022/12/20 03:51:16;;;;;;;4.95;3.30;;;;;;;-1.53;100.00;101386.41;6178242;23;20381;-83
2022/12/20 03:53:41;;;;;;;4.65;4.32;;;;;;;-1.50;100.00;101388.50;6151438;23;20020;-83
2022/12/20 03:56:07;;;;;;;5.20;3.47;;;;;;;-1.56;100.00;101376.19;6153814;23;20367;-83
2022/12/20 03:58:34;;;;;;;3.90;3.50;;;;;;;-1.54;100.00;101380.19;6151019;23;20067;-83
2022/12/20 04:01:01;;;;;;;2.10;1.98;;;;;;;-1.58;100.00;101386.59;6153492;23;20028;-83
2022/12/20 04:03:37;;;;;;;7.45;6.70;;;;;;;-1.52;100.00;101385.28;6177894;23;20021;-83
2022/12/20 04:06:03;;;;;;;3.15;1.77;;;;;;;-1.57;100.00;101393.63;6178145;23;20105;-83
2022/12/20 04:08:29;;;;;;;4.63;4.07;;;;;;;-1.60;100.00;101383.38;6154181;23;20017;-83
2022/12/20 04:13:50;;;;;;;3.67;3.30;;;;;;;-1.58;100.00;101392.03;6153953;23;20118;-84
2022/12/20 04:16:20;;;;;;;2.00;1.90;;;;;;;-1.56;100.00;101389.78;6126922;23;20539;-83
2022/12/20 04:18:46;;;;;;;4.05;2.70;;;;;;;-1.55;100.00;101392.19;6152157;23;20048;-84
2022/12/20 04:21:14;;;;;;;1.60;1.50;;;;;;;-1.62;100.00;101388.38;6153577;23;20037;-83
2022/12/20 04:23:43;;;;;;;7.13;3.90;;;;;;;-1.61;100.00;101382.59;6128871;23;20016;-84
2022/12/20 04:26:09;;;;;;;2.45;2.15;;;;;;;-1.62;100.00;101380.22;6154658;23;20021;-83
2022/12/20 04:28:35;;;;;;;2.88;2.17;;;;;;;-1.64;100.00;101387.88;6126349;23;20009;-83
2022/12/20 04:31:01;;;;;;;2.88;2.53;;;;;;;-1.66;100.00;101390.94;6151429;23;20017;-84
2022/12/20 04:33:29;;;;;;;0.10;0.10;;;;;;;-1.61;100.00;101390.75;6128407;23;20025;-83
2022/12/20 04:35:55;;;;;;;6.03;3.53;;;;;;;-1.62;100.00;101385.66;6178068;23;20005;-83
2022/12/20 04:38:22;;;;;;;4.30;3.95;;;;;;;-1.63;100.00;101373.16;6130596;23;20017;-84
2022/12/20 04:40:50;;;;;;;5.18;4.10;;;;;;;-1.65;100.00;101372.66;6152491;23;20039;-83
2022/12/20 04:43:16;;;;;;;1.65;1.55;;;;;;;-1.69;100.00;101374.44;6151329;23;20075;-83
2022/12/20 04:45:45;;;;;;;8.30;3.85;;;;;;;-1.65;100.00;101394.44;6152634;23;20005;-83
2022/12/20 04:48:11;;;;;;;3.80;2.97;;;;;;;-1.70;100.00;101389.97;6150485;23;20021;-84
2022/12/20 04:50:38;;;;;;;3.22;3.03;;;;;;;-1.70;100.00;101400.06;6155002;23;20013;-84
2022/12/20 04:55:49;;;;;;;3.45;2.88;;;;;;;-1.71;100.00;101387.56;6134587;23;20017;-83
2022/12/20 04:58:15;;;;;;;2.70;2.08;;;;;;;-1.79;100.00;101369.34;6153450;23;20444;-84
2022/12/20 05:00:41;;;;;;;2.08;1.35;;;;;;;-1.72;100.00;101375.09;6154290;23;20017;-83
2022/12/20 05:03:21;;;;;;;2.00;1.90;;;;;;;-1.73;100.00;101371.56;6154107;23;20017;-83
2022/12/20 05:05:47;;;;;;;12.05;5.22;;;;;;;-1.71;100.00;101377.50;6153430;23;20509;-84
2022/12/20 05:08:13;;;;;;;6.35;4.25;;;;;;;-1.70;100.00;101378.31;6156129;23;20102;-84
2022/12/20 05:10:39;;;;;;;2.78;2.13;;;;;;;-1.69;100.00;101377.16;6131664;23;20107;-83
2022/12/20 05:13:05;;;;;;;3.08;2.70;;;;;;;-1.72;100.00;101370.44;6181576;23;20144;-84
2022/12/20 05:15:36;;;;;;;5.22;3.80;;;;;;;-1.78;100.00;101344.56;6156125;23;20005;-84
2022/12/20 05:18:02;;;;;;;1.67;1.58;;;;;;;-1.73;100.00;101365.31;6181198;23;20035;-84
2022/12/20 05:20:38;;;;;;;7.85;3.13;;;;;;;-1.72;100.00;101370.44;6155456;23;20009;-85
2022/12/20 05:28:37;;;;;;;1.77;1.67;;;;;;;-1.77;100.00;101345.31;6155319;23;20513;-85
2022/12/20 05:31:02;;;;;;;13.07;2.42;;;;;;;-1.69;100.00;101358.91;6157722;23;20033;-84
2022/12/20 05:33:31;;;;;;;2.70;2.45;;;;;;;-1.71;100.00;101360.38;6156596;23;20017;-84
2022/12/20 05:35:57;;;;;;;1.48;1.38;;;;;;;-1.79;100.00;101340.22;6154070;23;20012;-84
2022/12/20 05:38:23;;;;;;;2.55;2.35;;;;;;;-1.73;100.00;101352.53;6155313;23;20031;-84
2022/12/20 05:40:50;;;;;;;2.67;2.45;;;;;;;-1.71;100.00;101354.94;6132130;23;20504;-84
2022/12/20 05:43:17;;;;;;;12.73;2.70;;;;;;;-1.74;100.00;101352.84;6129889;23;20009;-84
2022/12/20 05:45:46;;;;;;;0.98;0.98;;;;;;;-1.83;100.00;101341.19;6133387;23;20100;-84
2022/12/20 05:48:14;;;;;;;10.65;2.35;;;;;;;-1.77;100.00;101351.56;6132138;23;20384;-84
2022/12/20 05:50:42;;;;;;;6.60;4.97;;;;;;;-1.77;100.00;101353.47;6153660;23;20454;-85
2022/12/20 05:53:29;;;;;;;0.85;0.85;;;;;;;-1.72;100.00;101356.03;6158219;23;20013;-85
2022/12/20 05:55:57;;;;;;;3.40;1.73;;;;;;;-1.71;100.00;101360.38;6155979;23;20017;-84
2022/12/20 05:58:34;;;;;;;4.22;1.38;;;;;;;-1.76;100.00;101345.00;6154043;23;20314;-84
2022/12/20 06:01:05;;;;;;;8.15;1.95;;;;;;;-1.72;100.00;101345.16;6156017;23;20035;-85
2022/12/20 06:03:36;;;;;;;1.75;1.65;;;;;;;-1.75;100.00;101326.78;6132966;23;20083;-85
2022/12/20 06:06:05;;;;;;;7.38;4.20;;;;;;;-1.72;100.00;101342.44;6132477;23;20393;-83
2022/12/20 06:08:31;;;;;;;2.67;2.33;;;;;;;-1.69;100.00;101336.34;6129890;23;20005;-84
2022/12/20 06:11:00;;;;;;;0.35;0.35;;;;;;;-1.74;100.00;101328.38;6107248;23;20402;-84
2022/12/20 06:13:29;;;;;;;2.35;2.25;;;;;;;-1.74;100.00;101325.66;6153727;23;20083;-84
2022/12/20 06:15:55;;;;;;;2.50;2.40;;;;;;;-1.85;100.00;101310.78;6155315;23;20020;-84
2022/12/20 06:18:21;;;;;;;2.35;2.17;;;;;;;-1.83;100.00;101314.00;6153306;23;20001;-84
2022/12/20 06:20:51;;;;;;;2.30;1.75;;;;;;;-1.75;100.00;101319.41;6153565;23;20028;-83
2022/12/20 06:23:20;;;;;;;2.92;2.65;;;;;;;-1.85;100.00;101311.56;6151853;23;20044;-84
2022/12/20 06:25:54;;;;;;;2.50;2.10;;;;;;;-1.99;100.00;101281.88;6149556;23;20024;-84
2022/12/20 06:28:21;;;;;;;1.45;1.25;;;;;;;-1.78;100.00;101317.34;6150773;23;20071;-84
2022/12/20 06:30:57;;;;;;;2.47;2.28;;;;;;;-1.75;100.00;101313.97;6178512;23;20337;-84
2022/12/20 06:33:39;;;;;;;2.10;1.52;;;;;;;-1.73;100.00;101324.50;6128574;23;20135;-84
2022/12/20 06:36:05;;;;;;;1.58;1.50;;;;;;;-1.74;100.00;101320.22;6127332;23;20040;-84
2022/12/20 06:38:31;;;;;;;1.77;1.67;;;;;;;-1.82;100.00;101312.88;6179115;23;19993;-84
2022/12/20 06:40:56;;;;;;;2.22;2.13;;;;;;;-1.81;100.00;101315.25;6177924;23;20040;-83
2022/12/20 06:43:22;;;;;;;4.30;4.00;;;;;;;-1.79;100.00;101304.88;6178452;23;20024;-84
2022/12/20 06:45:47;;;;;;;1.75;1.10;;;;;;;-1.76;100.00;101306.13;6178497;23;20059;-86
2022/12/20 06:48:13;;;;;;;3.75;3.38;;;;;;;-1.74;100.00;101317.50;6125262;23;20028;-86
2022/12/20 06:50:40;;;;;;;2.47;2.17;;;;;;;-1.82;100.00;101304.72;6128648;23;20005;-86
2022/12/20 06:53:06;;;;;;;4.95;3.70;;;;;;;-1.90;100.00;101292.72;6127087;23;20085;-86
2022/12/20 06:55:32;;;;;;;5.70;4.18;;;;;;;-1.78;100.00;101305.66;6153200;23;20348;-86
2022/12/20 06:57:58;;;;;;;5.47;4.47;;;;;;;-1.75;100.00;101316.69;6150371;23;20346;-87
2022/12/20 07:00:24;;;;;;;8.77;2.75;;;;;;;-1.73;100.00;101313.63;6104421;23;20377;-87
2022/12/20 07:02:50;;;;;;;2.85;2.65;;;;;;;-1.82;100.00;101310.97;6151856;23;20025;-86
2022/12/20 07:05:15;;;;;;;1.42;0.80;;;;;;;-1.78;100.00;101322.00;6179202;23;20019;-86
2022/12/20 07:07:41;;;;;;;1.05;1.05;;;;;;;-1.72;100.00;101328.84;6153104;23;20009;-86
2022/12/20 07:10:07;;;;;;;4.43;2.65;;;;;;;-1.73;100.00;101329.94;6126475;23;20009;-86
2022/12/20 07:12:33;;;;;;;6.07;2.22;;;;;;;-1.81;100.00;101328.03;6127521;23;20005;-87
2022/12/20 07:14:59;;;;;;;2.35;2.22;;;;;;;-1.93;100.00;101305.03;6150626;23;20479;-86
2022/12/20 07:17:24;;;;;;;3.95;2.53;;;;;;;-1.85;100.00;101310.78;6127514;23;20096;-87
2022/12/20 07:19:50;;;;;;;3.15;2.95;;;;;;;-1.69;100.00;101326.28;6127721;23;20009;-86
2022/12/20 07:22:15;;;;;;;2.40;2.25;;;;;;;-1.80;100.00;101307.91;6152734;23;20028;-87
2022/12/20 07:24:41;;;;;;;1.90;1.80;;;;;;;-1.86;100.00;101314.63;6154263;23;20080;-86
2022/12/20 07:27:06;;;;;;;2.53;2.33;;;;;;;-1.74;100.00;101328.38;6104083;23;20013;-86
2022/12/20 07:29:32;;;;;;;1.23;1.17;;;;;;;-2.00;100.00;101279.47;6129483;23;20020;-86
2022/12/20 07:31:58;;;;;;;3.22;2.97;;;;;;;-1.73;100.00;101313.63;6104315;23;20012;-86
2022/12/20 07:34:24;;;;;;;1.55;1.48;;;;;;;-1.73;100.00;101310.91;6154216;23;20020;-87
2022/12/20 07:36:49;;;;;;;2.33;2.22;;;;;;;-1.80;100.00;101310.63;6129943;23;20044;-87
2022/12/20 07:39:15;;;;;;;0.57;0.57;;;;;;;-1.71;100.00;101322.28;6128876;23;20028;-86
2022/12/20 07:41:41;;;;;;;3.67;2.08;;;;;;;-1.76;100.00;101308.84;6129571;23;20021;-86
2022/12/20 07:44:13;;;;;;;1.92;1.80;;;;;;;-1.75;100.00;101316.69;6153161;23;20029;-87
2022/12/20 07:46:39;;;;;;;1.20;1.10;;;;;;;-1.79;100.00;101321.19;6153717;23;20116;-86
2022/12/20 07:49:04;;;;;;;4.28;3.97;;;;;;;-1.81;100.00;101317.16;6153595;23;20005;-86
2022/12/20 07:51:36;;;;;;;4.97;4.57;;;;;;;-1.70;100.00;101324.69;6129720;23;20021;-86
2022/12/20 07:54:04;;;;;;;1.65;1.55;;;;;;;-1.70;100.00;101315.72;6178329;23;20017;-86
2022/12/20 07:56:32;;;;;;;2.30;2.20;;;;;;;-1.69;100.00;101314.59;6128635;23;20088;-87
2022/12/20 07:58:58;;;;;;;1.25;1.25;;;;;;;-1.73;100.00;101310.91;6153081;23;20013;-87
2022/12/20 08:01:26;;;;;;;8.43;3.38;;;;;;;-1.69;100.00;101314.59;6179651;23;20003;-87
2022/12/20 08:03:57;;;;;;;4.25;3.67;;;;;;;-1.59;100.00;101320.50;6179923;23;20092;-86
2022/12/20 08:06:23;;;;;;;2.33;2.17;;;;;;;-1.66;100.00;101309.31;6130174;23;20084;-87
2022/12/20 08:08:52;;;;;;;5.43;2.67;;;;;;;-1.65;100.00;101304.66;6154048;23;20413;-86
2022/12/20 08:11:17;;;;;;;4.57;3.83;;;;;;;-1.76;100.00;101303.41;6153792;23;20106;-86
2022/12/20 08:13:43;;;;;;;0.95;0.95;;;;;;;-1.90;100.00;101290.78;6153856;23;20453;-86
2022/12/20 08:16:09;;;;;;;14.02;2.67;;;;;;;-1.86;100.00;101284.72;6128438;23;20012;-86
2022/12/20 08:18:34;;;;;;;6.60;3.33;;;;;;;-1.67;100.00;101301.47;6153844;23;20024;-87
2022/12/20 08:21:00;;;;;;;2.60;2.13;;;;;;;-1.65;100.00;101304.66;6179939;23;20413;-86
2022/12/20 08:23:26;;;;;;;4.40;4.00;;;;;;;-1.63;100.00;101303.22;6153727;23;20024;-86
2022/12/20 08:25:51;;;;;;;2.45;2.22;;;;;;;-1.74;100.00;101284.84;6154221;23;20070;-87
2022/12/20 08:28:17;;;;;;;1.48;1.38;;;;;;;-1.74;100.00;101293.00;6152871;23;20515;-86
2022/12/20 08:30:42;;;;;;;1.55;1.45;;;;;;;-1.71;100.00;101297.81;6154231;23;20529;-87
2022/12/20 08:33:08;;;;;;;1.75;1.67;;;;;;;-1.62;100.00;101299.38;6178315;23;20013;-86
2022/12/20 08:35:34;;;;;;;1.80;1.70;;;;;;;-1.66;100.00;101292.19;6154233;23;20116;-86
2022/12/20 08:37:59;;;;;;;6.20;2.08;;;;;;;-1.60;100.00;101307.22;6153891;23;20017;-86
2022/12/20 08:40:25;;;;;;;4.28;3.85;;;;;;;-1.62;100.00;101314.91;6129379;23;20451;-87
2022/12/20 08:42:50;;;;;;;1.45;1.08;;;;;;;-1.71;100.00;101295.88;6155485;23;20426;-87
2022/12/20 08:45:18;;;;;;;2.38;2.25;;;;;;;-1.66;100.00;101298.44;6155154;23;20020;-86
2022/12/20 08:47:43;;;;;;;1.67;1.58;;;;;;;-1.64;100.00;101295.38;6132067;23;20421;-86
2022/12/20 08:50:09;;;;;;;7.85;4.88;;;;;;;-1.57;100.00;101314.72;6154372;23;20012;-86
2022/12/20 08:52:35;;;;;;;4.05;3.50;;;;;;;-1.67;100.00;101302.28;6131979;23;20434;-86
2022/12/20 08:55:00;;;;;;;3.58;2.20;;;;;;;-1.60;100.00;101308.00;6181285;23;20422;-86
2022/12/20 08:57:26;;;;;;;2.28;1.13;;;;;;;-1.64;100.00;101298.09;6181880;23;20019;-86
2022/12/20 08:59:51;;;;;;;0.82;0.82;;;;;;;-1.60;100.00;101297.13;6181390;23;20005;-87
2022/12/20 09:02:17;;;;;;;2.00;1.88;;;;;;;-1.76;100.00;101270.75;6154759;23;20017;-88
2022/12/20 09:04:43;;;;;;;2.13;2.03;;;;;;;-1.70;100.00;101274.91;6156020;23;20663;-86
2022/12/20 09:07:09;;;;;;;2.38;2.17;;;;;;;-1.74;100.00;101261.19;6130331;23;20378;-86
2022/12/20 09:09:34;;;;;;;1.98;1.88;;;;;;;-1.53;100.00;101285.72;6155939;23;20457;-86
2022/12/20 09:12:00;;;;;;;1.30;1.25;;;;;;;-1.45;100.00;101298.50;6180705;23;20021;-87
2022/12/20 09:14:26;;;;;;;2.97;2.83;;;;;;;-1.55;100.00;101277.91;6155726;23;20009;-87
2022/12/20 09:16:51;;;;;;;2.80;2.10;;;;;;;-1.53;100.00;101266.69;6154636;23;20071;-86
2022/12/20 09:19:17;;;;;;;2.33;2.13;;;;;;;-1.60;100.00;101264.47;6106043;23;20008;-88
2022/12/20 09:21:43;;;;;;;5.68;5.13;;;;;;;-1.57;100.00;101271.19;6131249;23;20009;-86
2022/12/20 09:24:08;;;;;;;2.42;2.25;;;;;;;-1.57;100.00;101257.56;6130036;23;20060;-88
2022/12/20 09:26:35;;;;;;;1.92;1.83;;;;;;;-1.53;100.00;101242.19;6155382;23;20076;-88
2022/12/20 09:29:00;;;;;;;2.92;2.72;;;;;;;-1.43;100.00;101264.41;6154275;23;20017;-88
2022/12/20 09:31:26;;;;;;;2.92;2.72;;;;;;;-1.35;100.00;101276.38;6154960;23;20013;-88
2022/12/20 09:33:53;;;;;;;1.83;1.73;;;;;;;-1.33;100.00;101274.13;6153820;23;20028;-88
2022/12/20 09:36:20;;;;;;;2.80;2.35;;;;;;;-1.38;100.00;101271.59;6182168;23;20008;-88
2022/12/20 09:38:47;;;;;;;3.20;2.28;;;;;;;-1.49;100.00;101245.84;6155607;23;20453;-88
2022/12/20 09:41:28;;;;;;;2.42;2.33;;;;;;;-1.44;100.00;101251.94;6155264;23;20004;-87
2022/12/20 09:43:54;;;;;;;5.07;3.30;;;;;;;-1.48;100.00;101245.53;6180284;23;20045;-88
2022/12/20 09:46:21;;;;;;;2.67;2.50;;;;;;;-1.49;100.00;101237.69;6154743;23;20453;-86
2022/12/20 09:48:47;;;;;;;1.73;1.63;;;;;;;-1.58;100.00;101223.34;6154282;23;20393;-88
2022/12/20 09:51:12;;;;;;;1.13;1.13;;;;;;;-1.40;100.00;101252.06;6154736;23;20005;-87
2022/12/20 09:53:59;;;;;;;4.00;3.60;;;;;;;-1.28;100.00;101254.09;6181329;23;20093;-87
2022/12/20 09:56:37;;;;;;;5.57;2.70;;;;;;;-1.26;100.00;101233.59;6182066;23;20036;-87
2022/12/20 09:59:12;;;;;;;13.15;4.85;;;;;;;-1.17;100.00;101261.56;6128905;23;20025;-86
2022/12/20 10:01:38;;;;;;;1.20;1.20;;;;;;;-1.14;100.00;101252.75;6130716;23;20013;-88
2022/12/20 10:04:06;;;;;;;2.83;2.65;;;;;;;-1.08;100.00;101247.91;6152142;23;20338;-87
2022/12/20 10:06:49;;;;;;;5.40;2.45;;;;;;;-1.17;100.00;101244.44;6157643;23;20017;-88
2022/12/20 10:09:30;;;;;;;2.75;2.55;;;;;;;-1.09;100.00;101240.88;6156932;23;20269;-88
2022/12/20 10:12:31;;;;;;;6.82;1.45;;;;;;;-1.27;100.00;101212.94;6157270;23;20028;-88
2022/12/20 10:15:03;;;;;;;3.80;3.58;;;;;;;-1.08;100.00;101237.81;6120468;23;20021;-88
2022/12/20 10:17:32;;;;;;;3.10;2.85;;;;;;;-1.06;100.00;101227.41;6183282;23;20036;-87
2022/12/20 10:20:19;;;;;;;2.20;2.03;;;;;;;-1.19;100.00;101217.53;6132407;23;20021;-87
2022/12/20 10:22:52;;;;;;;0.38;0.38;;;;;;;-1.12;100.00;101222.44;6157253;23;20092;-87
2022/12/20 10:25:21;;;;;;;1.58;1.52;;;;;;;-1.14;100.00;101203.75;6156529;23;20017;-86
2022/12/20 10:27:49;;;;;;;1.42;1.38;;;;;;;-1.17;100.00;101179.09;6182913;23;20029;-87
2022/12/20 10:30:17;;;;;;;2.92;2.72;;;;;;;-1.10;100.00;101201.16;6130741;23;20013;-86
2022/12/20 10:32:48;;;;;;;3.63;3.40;;;;;;;-1.03;100.00;101191.31;6108089;23;20005;-87
2022/12/20 10:35:14;;;;;;;2.95;2.75;;;;;;;-1.09;100.00;101195.34;6131981;23;20457;-88
2022/12/20 10:37:59;;;;;;;2.80;2.63;;;;;;;-1.05;100.00;101188.13;6183519;23;19997;-88
2022/12/20 10:40:35;;;;;;;4.00;3.70;;;;;;;-1.15;100.00;101171.38;6132191;23;20485;-88
2022/12/20 10:43:02;;;;;;;2.08;1.95;;;;;;;-1.13;100.00;101178.09;6132500;23;20005;-87
2022/12/20 10:45:38;;;;;;;4.22;3.83;;;;;;;-1.10;100.00;101169.28;6156623;23;20060;-88
2022/12/20 10:48:20;;;;;;;3.17;2.90;;;;;;;-1.12;100.00;101168.81;6157428;23;20350;-88
2022/12/20 10:51:01;;;;;;;2.40;2.25;;;;;;;-1.23;100.00;101154.00;6131955;23;20084;-88
2022/12/20 10:53:28;;;;;;;6.32;1.85;;;;;;;-1.07;100.00;101171.34;6155817;23;20548;-88
2022/12/20 10:56:03;;;;;;;3.85;3.45;;;;;;;-1.12;100.00;101166.06;6157057;23;20457;-88
2022/12/20 10:58:34;;;;;;;2.17;2.08;;;;;;;-1.17;100.00;101139.03;6131506;23;20540;-88
2022/12/20 11:01:04;;;;;;;4.15;2.45;;;;;;;-1.20;100.00;101152.53;6132073;23;20469;-87
2022/12/20 11:03:30;;;;;;;3.55;2.63;;;;;;;-1.27;100.00;101142.16;6156218;23;20028;-87
2022/12/20 11:06:02;;;;;;;1.77;1.67;;;;;;;-1.36;100.00;101127.00;6132116;23;20012;-88
2022/12/20 11:08:31;;;;;;;4.35;3.00;;;;;;;-1.26;100.00;101149.22;6156266;23;20039;-87
2022/12/20 11:11:29;;;;;;;2.88;2.45;;;;;;;-1.23;100.00;101143.09;6107630;23;20095;-87
2022/12/20 11:14:12;;;;;;;2.47;1.67;;;;;;;-1.34;100.00;101119.31;6123263;23;20021;-88
2022/12/20 11:16:39;;;;;;;5.90;5.43;;;;;;;-1.22;100.00;101131.09;6154826;23;20043;-87
2022/12/20 11:19:13;;;;;;;3.85;3.55;;;;;;;-1.20;100.00;101128.03;6182516;23;20083;-87
2022/12/20 11:21:53;;;;;;;0.98;0.98;;;;;;;-1.26;100.00;101105.66;6156990;23;20013;-88
2022/12/20 11:24:31;;;;;;;6.20;4.22;;;;;;;-1.21;100.00;101113.59;6128469;23;20013;-88
2022/12/20 11:27:03;;;;;;;1.05;1.05;;;;;;;-1.03;100.00;101115.06;6155769;23;20017;-87
2022/12/20 11:29:55;;;;;;;1.58;1.45;;;;;;;-1.04;100.00;101127.09;6131060;23;20025;-87
2022/12/20 11:32:45;;;;;;;3.47;3.22;;;;;;;-1.10;100.00;101130.34;6182265;23;20012;-87
2022/12/20 11:35:41;;;;;;;6.80;3.65;;;;;;;-1.03;100.00;101120.53;6155452;23;20031;-88
2022/12/20 11:38:26;;;;;;;4.63;2.25;;;;;;;-1.04;100.00;101118.94;6181318;23;20024;-87
2022/12/20 11:41:08;;;;;;;2.10;2.00;;;;;;;-1.08;100.00;101122.63;6155842;23;20327;-87